Chatham, MA

7:29 AM EDT on April 25, 2015 (GMT -0400)
Oyster Pond and River | | Change Station
CLOSE
Current Station
Personal Weather Station
Location: Chatham, MA
Elevation: 69 ft
Nearby Weather Stations

Elev 69 ft 41.68 °N, 69.97 °W | Updated 1 second ago

Partly Cloudy
Partly Cloudy
39.5 °F
Feels Like 37 °F
N
4.0
Wind Variable Wind from West
Gusts 12.0 mph

Today
High -- | Low -- °F
--% Chance of Precip.
Yesterday
High -- | Low -- °F
Precip. -- in
5:45 AM 7:31 PM
Waxing Crescent, 45% visible
Pressure 29.80 in
Visibility 10.0 miles
Clouds Few 4200 ft
Windchill 37 °F
Dew Point 28 °F
Humidity 62%
Rainfall 0.00 in
Snow Depth Not available.
UV 1 out of 12
Pollen 10.30 out of 12
Air Quality Not available.
Flu Activity Widespread
METAR KCQX 251052Z AUTO VRB03KT 10SM FEW042 02/M05 A2979 RMK AO2 SLP090 T00221050

More Conditions Fewer Conditions

Pressure 29.80 in
Visibility 10.0 miles
Clouds Few 4200 ft
Windchill 37 °F
Dew Point 28 °F
Humidity 62%
Rainfall 0.00 in
Snow Depth Not available.
UV 1 out of 12
Pollen 10.30 out of 12
Air Quality Not available.
Flu Activity Widespread
METAR KCQX 251052Z AUTO VRB03KT 10SM FEW042 02/M05 A2979 RMK AO2 SLP090 T00221050

More Conditions Fewer Conditions

10-Day Weather Forecast

Almanac

Astronomy

Apr. 25, 2015 Rise Set
Actual Time
Civil Twilight
Nautical Twilight
Astronomical Twilight
Moon
Length of Visible Light
Length of Day
Tomorrow will be .
, % of the Moon is Illuminated

Today's Extremes

State Highs State Lows

Community

WunderPhotos

Upload Photos

1,816,639 photos uploaded!

WunderBlogs® & News

Nearby

Air Quality

  Air Quality AQ Index Pollutant
Not available.

Snow Depth

Station Depth Elevation

Earthquake Activity

City Distance Mag. Time & Date
Minimum magnitude displayed is 2.5.

Coastal Water Temperatures

Place Temperature

Stations

Nearby Weather Stations

Station Location Temp. Windchill Dew Point Humidity Wind Precip. Elev Updated Type